Time,TemperatureF,DewpointF,PressureIn,WindDirection,WindDirectionDegrees,WindSpeedMPH,WindSpeedGustMPH,Humidity,HourlyPrecipIn,Conditions,Clouds,dailyrainin,SoftwareType,DateUTC
2013-03-02 00:00:00,54.5,37.1,30.02,West,270,2.6,5.5,51,0.00,,,0.00,JAVA,2013-03-02 05:00:00,
2013-03-02 00:01:00,54.5,37.1,30.02,SW,225,2.6,5.5,51,0.00,,,0.00,JAVA,2013-03-02 05:01:00,
2013-03-02 00:04:00,54.4,37.1,30.02,North,0,2.3,5.5,51,0.00,,,0.00,JAVA,2013-03-02 05:04:00,
2013-03-02 00:05:00,54.5,37.0,30.02,South,180,2.1,3.5,51,0.00,,,0.00,JAVA,2013-03-02 05:05:00,
2013-03-02 00:10:00,54.4,37.0,30.02,West,270,2.6,3.6,52,0.00,,,0.00,JAVA,2013-03-02 05:10:00,
2013-03-02 00:15:00,54.3,37.0,30.02,WSW,247,2.8,4.2,53,0.00,,,0.00,JAVA,2013-03-02 05:15:00,
2013-03-02 00:20:00,54.2,37.0,30.01,NNW,337,2.7,4.5,53,0.00,,,0.00,JAVA,2013-03-02 05:20:00,
2013-03-02 00:25:00,54.2,37.1,30.02,NE,45,2.3,4.4,54,0.00,,,0.00,JAVA,2013-03-02 05:25:00,
2013-03-02 00:30:00,54.2,37.3,30.01,WSW,247,3.1,5.6,54,0.00,,,0.00,JAVA,2013-03-02 05:30:00,
2013-03-02 00:35:00,54.1,37.4,30.02,SSW,202,2.6,4.3,54,0.00,,,0.00,JAVA,2013-03-02 05:35:00,
2013-03-02 00:41:00,53.9,37.5,30.01,West,270,2.6,4.4,55,0.00,,,0.00,JAVA,2013-03-02 05:41:00,
2013-03-02 00:46:00,53.9,37.7,30.02,WNW,292,2.4,3.5,55,0.00,,,0.00,JAVA,2013-03-02 05:46:00,
2013-03-02 00:51:00,53.8,37.8,30.02,NW,315,2.5,4.5,55,0.00,,,0.00,JAVA,2013-03-02 05:51:00,
2013-03-02 00:56:00,53.8,38.0,30.02,SSE,157,3.1,6.3,56,0.00,,,0.00,JAVA,2013-03-02 05:56:00,
2013-03-02 01:01:00,53.8,38.1,30.02,SSE,157,2.6,4.9,56,0.00,,,0.00,JAVA,2013-03-02 06:01:00,
2013-03-02 01:06:00,53.7,38.3,30.02,WNW,292,3.2,4.6,57,0.00,,,0.00,JAVA,2013-03-02 06:06:00,
2013-03-02 01:11:00,53.7,38.4,30.02,West,270,3.1,5.3,57,0.00,,,0.00,JAVA,2013-03-02 06:11:00,
2013-03-02 01:16:00,53.7,38.6,30.02,West,270,2.8,4.0,58,0.00,,,0.00,JAVA,2013-03-02 06:16:00,
2013-03-02 01:22:00,53.6,38.7,30.02,West,270,4.1,6.3,58,0.00,,,0.00,JAVA,2013-03-02 06:22:00,
2013-03-02 01:27:00,53.6,38.9,30.02,NW,315,3.6,5.6,59,0.00,,,0.00,JAVA,2013-03-02 06:27:00,
2013-03-02 01:32:00,53.5,39.0,30.02,WSW,247,3.0,4.7,59,0.00,,,0.00,JAVA,2013-03-02 06:32:00,
2013-03-02 01:37:00,53.5,39.2,30.02,North,0,2.3,4.8,60,0.00,,,0.00,JAVA,2013-03-02 06:37:00,
2013-03-02 01:42:00,53.4,39.4,30.02,NW,315,3.6,6.2,60,0.00,,,0.00,JAVA,2013-03-02 06:42:00,
2013-03-02 01:48:00,53.3,39.5,30.02,WSW,247,4.0,6.6,60,0.00,,,0.00,JAVA,2013-03-02 06:48:00,
2013-03-02 01:53:00,53.3,39.6,30.02,NE,45,3.4,4.5,61,0.00,,,0.00,JAVA,2013-03-02 06:53:00,
2013-03-02 01:58:00,53.0,39.7,30.01,SSW,202,3.8,6.3,61,0.00,,,0.00,JAVA,2013-03-02 06:58:00,
2013-03-02 02:03:00,53.0,39.9,30.01,NW,315,3.2,6.6,62,0.00,,,0.00,JAVA,2013-03-02 07:03:00,
2013-03-02 02:08:00,52.9,40.0,30.01,North,0,2.6,4.1,62,0.00,,,0.00,JAVA,2013-03-02 07:08:00,
2013-03-02 02:13:00,52.9,40.1,30.01,NE,45,3.4,4.5,63,0.00,,,0.00,JAVA,2013-03-02 07:13:00,
2013-03-02 02:18:00,52.7,40.2,30.01,NE,45,3.0,5.6,63,0.00,,,0.00,JAVA,2013-03-02 07:18:00,
2013-03-02 02:24:00,52.7,40.3,30.01,NNE,22,3.2,5.3,63,0.00,,,0.00,JAVA,2013-03-02 07:24:00,
2013-03-02 02:29:00,52.6,40.4,30.01,North,0,3.4,6.2,63,0.00,,,0.00,JAVA,2013-03-02 07:29:00,
2013-03-02 02:34:00,52.5,40.4,30.01,WNW,292,3.9,5.6,63,0.00,,,0.00,JAVA,2013-03-02 07:34:00,
2013-03-02 02:39:00,52.4,40.5,30.01,NW,315,4.5,7.1,63,0.00,,,0.00,JAVA,2013-03-02 07:39:00,
2013-03-02 02:44:00,52.4,40.5,30.01,WNW,292,3.5,5.6,63,0.00,,,0.00,JAVA,2013-03-02 07:44:00,
2013-03-02 02:49:00,52.4,40.4,30.01,NW,315,3.9,5.7,62,0.00,,,0.00,JAVA,2013-03-02 07:49:00,
2013-03-02 02:54:00,52.3,40.3,30.01,North,0,3.4,4.3,61,0.00,,,0.00,JAVA,2013-03-02 07:54:00,
2013-03-02 02:59:00,52.3,40.1,30.01,NW,315,3.5,5.7,60,0.00,,,0.00,JAVA,2013-03-02 07:59:00,
2013-03-02 03:05:00,52.1,39.9,30.01,ENE,67,4.3,5.6,59,0.00,,,0.00,JAVA,2013-03-02 08:05:00,
2013-03-02 03:10:00,52.0,39.6,30.01,North,0,3.8,6.1,59,0.00,,,0.00,JAVA,2013-03-02 08:10:00,
2013-03-02 03:15:00,52.0,39.3,30.01,NW,315,3.2,4.6,58,0.00,,,0.00,JAVA,2013-03-02 08:15:00,
2013-03-02 03:20:00,51.9,38.9,30.01,NW,315,2.8,4.4,57,0.00,,,0.00,JAVA,2013-03-02 08:20:00,
2013-03-02 03:26:00,51.8,38.6,30.02,SW,225,2.6,4.2,57,0.00,,,0.00,JAVA,2013-03-02 08:26:00,
2013-03-02 03:31:00,51.7,38.3,30.01,SW,225,3.3,5.3,57,0.00,,,0.00,JAVA,2013-03-02 08:31:00,
2013-03-02 03:36:00,51.7,37.9,30.01,North,0,3.6,5.5,57,0.00,,,0.00,JAVA,2013-03-02 08:36:00,
2013-03-02 03:41:00,51.6,37.7,30.02,NW,315,3.0,5.2,57,0.00,,,0.00,JAVA,2013-03-02 08:41:00,
2013-03-02 03:46:00,51.6,37.4,30.02,NW,315,2.8,5.1,57,0.00,,,0.00,JAVA,2013-03-02 08:46:00,
2013-03-02 03:51:00,51.5,37.2,30.01,NW,315,3.9,5.8,57,0.00,,,0.00,JAVA,2013-03-02 08:51:00,
2013-03-02 03:56:00,51.5,37.1,30.01,NNW,337,4.1,7.3,57,0.00,,,0.00,JAVA,2013-03-02 08:56:00,
2013-03-02 04:01:00,51.4,37.0,30.02,North,0,3.3,4.6,57,0.00,,,0.00,JAVA,2013-03-02 09:01:00,
2013-03-02 04:07:00,51.2,36.9,30.01,NNW,337,3.1,4.9,57,0.00,,,0.00,JAVA,2013-03-02 09:07:00,
2013-03-02 04:12:00,51.2,36.8,30.01,NW,315,4.3,7.5,57,0.00,,,0.00,JAVA,2013-03-02 09:12:00,
2013-03-02 04:17:00,51.1,36.7,30.02,NNW,337,3.9,6.4,57,0.00,,,0.00,JAVA,2013-03-02 09:17:00,
2013-03-02 04:22:00,51.0,36.7,30.02,North,0,4.0,6.3,57,0.00,,,0.00,JAVA,2013-03-02 09:22:00,
2013-03-02 04:27:00,50.9,36.6,30.02,North,0,3.8,5.7,57,0.00,,,0.00,JAVA,2013-03-02 09:27:00,
2013-03-02 04:32:00,50.8,36.5,30.02,WNW,292,3.7,5.6,57,0.00,,,0.00,JAVA,2013-03-02 09:32:00,
2013-03-02 04:37:00,50.8,36.4,30.02,North,0,3.0,5.2,57,0.00,,,0.00,JAVA,2013-03-02 09:37:00,
2013-03-02 04:43:00,50.7,36.4,30.02,NNW,337,3.6,5.5,57,0.00,,,0.00,JAVA,2013-03-02 09:43:00,
2013-03-02 04:48:00,50.7,36.3,30.03,NNW,337,4.3,7.3,57,0.00,,,0.00,JAVA,2013-03-02 09:48:00,
2013-03-02 04:53:00,50.6,36.2,30.03,WNW,292,3.8,4.9,57,0.00,,,0.00,JAVA,2013-03-02 09:53:00,
2013-03-02 04:58:00,50.3,36.1,30.03,North,0,4.5,7.7,57,0.00,,,0.00,JAVA,2013-03-02 09:58:00,
2013-03-02 05:03:00,50.3,36.1,30.04,NE,45,5.3,8.8,57,0.00,,,0.00,JAVA,2013-03-02 10:03:00,
2013-03-02 05:09:00,50.3,36.0,30.04,North,0,4.0,5.6,56,0.00,,,0.00,JAVA,2013-03-02 10:09:00,
2013-03-02 05:14:00,50.2,35.9,30.04,NW,315,3.4,4.8,56,0.00,,,0.00,JAVA,2013-03-02 10:14:00,
2013-03-02 05:19:00,50.2,35.8,30.04,NNE,22,3.0,4.3,56,0.00,,,0.00,JAVA,2013-03-02 10:19:00,
2013-03-02 05:24:00,50.1,35.6,30.05,North,0,3.5,5.1,56,0.00,,,0.00,JAVA,2013-03-02 10:24:00,
2013-03-02 05:30:00,50.1,35.5,30.04,West,270,3.4,5.1,55,0.00,,,0.00,JAVA,2013-03-02 10:30:00,
2013-03-02 05:35:00,50.0,35.3,30.05,WNW,292,3.4,6.1,55,0.00,,,0.00,JAVA,2013-03-02 10:35:00,
2013-03-02 05:40:00,49.9,35.2,30.04,NW,315,3.4,5.2,55,0.00,,,0.00,JAVA,2013-03-02 10:40:00,
2013-03-02 05:45:00,49.8,35.0,30.04,NE,45,4.7,6.2,55,0.00,,,0.00,JAVA,2013-03-02 10:45:00,
2013-03-02 05:50:00,49.8,34.8,30.04,WNW,292,4.4,6.1,55,0.00,,,0.00,JAVA,2013-03-02 10:50:00,
2013-03-02 05:55:00,49.8,34.7,30.05,North,0,4.0,5.5,55,0.00,,,0.00,JAVA,2013-03-02 10:55:00,
2013-03-02 06:01:00,49.7,34.6,30.05,West,270,3.5,6.0,55,0.00,,,0.00,JAVA,2013-03-02 11:01:00,
2013-03-02 06:06:00,49.7,34.4,30.05,NW,315,3.3,4.8,55,0.00,,,0.00,JAVA,2013-03-02 11:06:00,
2013-03-02 06:11:00,49.7,34.3,30.05,WNW,292,4.0,6.9,54,0.00,,,0.00,JAVA,2013-03-02 11:11:00,
2013-03-02 06:16:00,49.6,34.2,30.06,North,0,3.8,5.8,54,0.00,,,0.00,JAVA,2013-03-02 11:16:00,
2013-03-02 06:21:00,49.6,34.1,30.05,North,0,3.1,6.0,54,0.00,,,0.00,JAVA,2013-03-02 11:21:00,
2013-03-02 06:26:00,49.4,34.0,30.06,SW,225,2.7,4.4,54,0.00,,,0.00,JAVA,2013-03-02 11:26:00,
2013-03-02 06:31:00,49.2,33.9,30.06,NNE,22,3.4,4.6,54,0.00,,,0.00,JAVA,2013-03-02 11:31:00,
2013-03-02 06:37:00,49.2,33.8,30.06,WNW,292,2.9,6.8,54,0.00,,,0.00,JAVA,2013-03-02 11:37:00,
2013-03-02 06:42:00,49.2,33.8,30.05,West,270,2.2,4.3,55,0.00,,,0.00,JAVA,2013-03-02 11:42:00,
2013-03-02 06:47:00,49.1,33.7,30.06,WSW,247,2.9,4.5,55,0.00,,,0.00,JAVA,2013-03-02 11:47:00,
2013-03-02 06:52:00,49.0,33.6,30.05,North,0,2.3,3.8,55,0.00,,,0.00,JAVA,2013-03-02 11:52:00,
2013-03-02 06:57:00,48.9,33.6,30.05,NNW,337,2.3,5.3,55,0.00,,,0.00,JAVA,2013-03-02 11:57:00,
2013-03-02 07:02:00,49.0,33.6,30.05,NW,315,1.9,3.4,55,0.00,,,0.00,JAVA,2013-03-02 12:02:00,
2013-03-02 07:07:00,48.9,33.6,30.05,NNW,337,2.4,3.3,55,0.00,,,0.00,JAVA,2013-03-02 12:07:00,
2013-03-02 07:12:00,48.9,33.6,30.05,North,0,2.4,4.4,55,0.00,,,0.00,JAVA,2013-03-02 12:12:00,
2013-03-02 07:18:00,48.9,33.6,30.06,West,270,1.8,4.2,55,0.00,,,0.00,JAVA,2013-03-02 12:18:00,
2013-03-02 07:23:00,49.0,33.6,30.05,NNE,22,1.9,3.9,55,0.00,,,0.00,JAVA,2013-03-02 12:23:00,
2013-03-02 07:28:00,49.0,33.6,30.05,North,0,2.1,3.4,55,0.00,,,0.00,JAVA,2013-03-02 12:28:00,
2013-03-02 07:33:00,49.1,33.7,30.05,NNW,337,2.3,4.1,55,0.00,,,0.00,JAVA,2013-03-02 12:33:00,
2013-03-02 07:38:00,49.2,33.7,30.06,North,0,2.8,3.6,55,0.00,,,0.00,JAVA,2013-03-02 12:38:00,
2013-03-02 07:43:00,49.3,33.8,30.05,NW,315,2.3,3.6,55,0.00,,,0.00,JAVA,2013-03-02 12:43:00,
2013-03-02 07:48:00,49.4,33.8,30.06,NNW,337,1.5,2.2,55,0.00,,,0.00,JAVA,2013-03-02 12:48:00,
2013-03-02 07:53:00,49.4,33.9,30.06,NNE,22,2.3,3.4,56,0.00,,,0.00,JAVA,2013-03-02 12:53:00,
2013-03-02 07:59:00,49.7,34.0,30.06,WNW,292,2.8,4.6,56,0.00,,,0.00,JAVA,2013-03-02 12:59:00,
2013-03-02 08:04:00,49.9,34.1,30.06,NNW,337,2.4,3.8,56,0.00,,,0.00,JAVA,2013-03-02 13:04:00,
2013-03-02 08:09:00,50.0,34.3,30.06,NW,315,2.3,3.3,56,0.00,,,0.00,JAVA,2013-03-02 13:09:00,
2013-03-02 08:14:00,50.1,34.4,30.05,WNW,292,2.3,4.3,56,0.00,,,0.00,JAVA,2013-03-02 13:14:00,
2013-03-02 08:19:00,50.1,34.6,30.07,SW,225,2.2,3.9,56,0.00,,,0.00,JAVA,2013-03-02 13:19:00,
2013-03-02 08:24:00,50.1,34.7,30.07,NNW,337,3.0,4.5,56,0.00,,,0.00,JAVA,2013-03-02 13:24:00,
2013-03-02 08:30:00,50.2,34.8,30.07,North,0,2.6,4.1,56,0.00,,,0.00,JAVA,2013-03-02 13:30:00,
2013-03-02 08:35:00,50.3,35.0,30.07,NE,45,2.5,3.5,56,0.00,,,0.00,JAVA,2013-03-02 13:35:00,
2013-03-02 08:40:00,50.6,35.2,30.07,North,0,2.3,4.4,56,0.00,,,0.00,JAVA,2013-03-02 13:40:00,
2013-03-02 08:45:00,50.7,35.3,30.07,WNW,292,2.1,3.8,56,0.00,,,0.00,JAVA,2013-03-02 13:45:00,
2013-03-02 08:50:00,50.9,35.4,30.07,NW,315,2.9,4.3,56,0.00,,,0.00,JAVA,2013-03-02 13:50:00,
2013-03-02 08:55:00,51.1,35.5,30.07,North,0,3.2,5.1,56,0.00,,,0.00,JAVA,2013-03-02 13:55:00,
2013-03-02 09:00:00,51.2,35.6,30.07,WNW,292,3.8,5.6,56,0.00,,,0.00,JAVA,2013-03-02 14:00:00,
2013-03-02 09:05:00,51.6,35.7,30.06,North,0,3.1,5.8,55,0.00,,,0.00,JAVA,2013-03-02 14:05:00,
2013-03-02 09:11:00,51.9,35.8,30.07,NNE,22,3.9,5.1,55,0.00,,,0.00,JAVA,2013-03-02 14:11:00,
2013-03-02 09:16:00,52.1,36.0,30.07,North,0,3.5,5.0,55,0.00,,,0.00,JAVA,2013-03-02 14:16:00,
2013-03-02 09:21:00,52.9,36.1,30.07,West,270,3.6,5.3,54,0.00,,,0.00,JAVA,2013-03-02 14:21:00,
2013-03-02 09:26:00,53.3,36.2,30.07,West,270,4.0,5.6,54,0.00,,,0.00,JAVA,2013-03-02 14:26:00,
2013-03-02 09:31:00,53.3,36.3,30.07,West,270,4.0,6.4,53,0.00,,,0.00,JAVA,2013-03-02 14:31:00,
2013-03-02 09:36:00,53.3,36.4,30.06,North,0,3.4,5.1,52,0.00,,,0.00,JAVA,2013-03-02 14:36:00,
2013-03-02 09:41:00,53.6,36.4,30.05,NW,315,3.4,4.9,52,0.00,,,0.00,JAVA,2013-03-02 14:41:00,
2013-03-02 09:46:00,54.3,36.5,30.06,NNW,337,2.4,3.5,51,0.00,,,0.00,JAVA,2013-03-02 14:46:00,
2013-03-02 09:52:00,54.8,36.6,30.05,NNE,22,3.8,5.4,50,0.00,,,0.00,JAVA,2013-03-02 14:52:00,
2013-03-02 09:57:00,54.6,36.6,30.06,NNW,337,3.6,6.0,50,0.00,,,0.00,JAVA,2013-03-02 14:57:00,
2013-03-02 10:02:00,54.6,36.5,30.06,NE,45,3.3,5.5,49,0.00,,,0.00,JAVA,2013-03-02 15:02:00,
2013-03-02 10:07:00,54.6,36.4,30.06,SW,225,3.5,5.3,48,0.00,,,0.00,JAVA,2013-03-02 15:07:00,
2013-03-02 10:12:00,54.8,36.2,30.06,NE,45,2.5,4.9,48,0.00,,,0.00,JAVA,2013-03-02 15:12:00,
2013-03-02 10:17:00,55.7,36.1,30.06,NW,315,3.2,4.6,48,0.00,,,0.00,JAVA,2013-03-02 15:17:00,
2013-03-02 10:22:00,56.4,36.1,30.06,North,0,3.5,5.9,47,0.00,,,0.00,JAVA,2013-03-02 15:22:00,
2013-03-02 10:27:00,56.4,36.1,30.06,North,0,3.0,4.8,46,0.00,,,0.00,JAVA,2013-03-02 15:27:00,
2013-03-02 10:32:00,56.4,36.1,30.06,WNW,292,2.5,4.0,46,0.00,,,0.00,JAVA,2013-03-02 15:32:00,
2013-03-02 10:38:00,55.9,35.9,30.06,NW,315,3.9,5.1,45,0.00,,,0.00,JAVA,2013-03-02 15:38:00,
2013-03-02 10:43:00,55.6,35.8,30.07,WSW,247,3.4,5.1,45,0.00,,,0.00,JAVA,2013-03-02 15:43:00,
2013-03-02 10:48:00,55.7,35.6,30.07,NW,315,4.0,7.0,44,0.00,,,0.00,JAVA,2013-03-02 15:48:00,
2013-03-02 10:53:00,56.0,35.4,30.07,NW,315,3.8,5.6,43,0.00,,,0.00,JAVA,2013-03-02 15:53:00,
2013-03-02 10:58:00,56.1,35.2,30.06,WNW,292,2.8,4.3,42,0.00,,,0.00,JAVA,2013-03-02 15:58:00,
2013-03-02 11:03:00,56.4,34.8,30.06,NW,315,3.1,4.9,41,0.00,,,0.00,JAVA,2013-03-02 16:03:00,
2013-03-02 11:08:00,56.5,34.3,30.06,NNW,337,3.4,4.7,40,0.00,,,0.00,JAVA,2013-03-02 16:08:00,
2013-03-02 11:13:00,56.5,33.9,30.06,SSE,157,3.5,5.0,40,0.00,,,0.00,JAVA,2013-03-02 16:13:00,
2013-03-02 11:18:00,57.3,33.5,30.06,North,0,2.9,4.3,39,0.00,,,0.00,JAVA,2013-03-02 16:18:00,
2013-03-02 11:23:00,58.4,33.4,30.06,NW,315,2.8,4.8,39,0.00,,,0.00,JAVA,2013-03-02 16:23:00,
2013-03-02 11:28:00,58.1,33.2,30.06,NE,45,3.0,4.3,38,0.00,,,0.00,JAVA,2013-03-02 16:28:00,
2013-03-02 11:34:00,58.6,33.1,30.06,North,0,2.8,6.6,38,0.00,,,0.00,JAVA,2013-03-02 16:34:00,
2013-03-02 11:39:00,58.0,33.1,30.07,NW,315,2.8,4.9,38,0.00,,,0.00,JAVA,2013-03-02 16:39:00,
2013-03-02 11:44:00,57.3,33.0,30.06,WNW,292,3.0,4.5,38,0.00,,,0.00,JAVA,2013-03-02 16:44:00,
2013-03-02 11:49:00,57.2,33.0,30.06,NNE,22,1.8,4.9,38,0.00,,,0.00,JAVA,2013-03-02 16:49:00,
2013-03-02 11:54:00,56.8,32.9,30.05,SW,225,3.5,5.1,38,0.00,,,0.00,JAVA,2013-03-02 16:54:00,
2013-03-02 11:59:00,56.3,32.8,30.06,NW,315,3.0,6.1,39,0.00,,,0.00,JAVA,2013-03-02 16:59:00,
2013-03-02 12:05:00,56.2,32.6,30.06,West,270,1.7,2.6,39,0.00,,,0.00,JAVA,2013-03-02 17:05:00,
2013-03-02 12:10:00,56.3,32.4,30.06,North,0,2.0,3.4,40,0.00,,,0.00,JAVA,2013-03-02 17:10:00,
2013-03-02 12:15:00,56.4,32.3,30.05,NW,315,2.3,3.5,40,0.00,,,0.00,JAVA,2013-03-02 17:15:00,
2013-03-02 12:20:00,56.6,32.3,30.05,NE,45,2.6,4.1,41,0.00,,,0.00,JAVA,2013-03-02 17:20:00,
2013-03-02 12:25:00,56.8,32.4,30.05,South,180,2.5,3.6,41,0.00,,,0.00,JAVA,2013-03-02 17:25:00,
2013-03-02 12:31:00,56.9,32.6,30.04,NE,45,2.1,3.2,42,0.00,,,0.00,JAVA,2013-03-02 17:31:00,
2013-03-02 12:36:00,57.1,32.8,30.04,SW,225,2.0,3.6,42,0.00,,,0.00,JAVA,2013-03-02 17:36:00,
2013-03-02 12:41:00,57.1,33.2,30.04,NNE,22,1.9,3.1,42,0.00,,,0.00,JAVA,2013-03-02 17:41:00,
2013-03-02 12:46:00,56.9,33.5,30.04,NE,45,2.1,2.9,42,0.00,,,0.00,JAVA,2013-03-02 17:46:00,
2013-03-02 12:51:00,56.6,33.8,30.04,North,0,1.7,3.2,42,0.00,,,0.00,JAVA,2013-03-02 17:51:00,
2013-03-02 12:56:00,56.5,34.0,30.04,West,270,1.8,3.0,42,0.00,,,0.00,JAVA,2013-03-02 17:56:00,
2013-03-02 13:02:00,56.9,34.1,30.03,WNW,292,2.7,5.4,42,0.00,,,0.00,JAVA,2013-03-02 18:02:00,
2013-03-02 13:07:00,57.1,34.2,30.03,NNE,22,2.2,3.5,42,0.00,,,0.00,JAVA,2013-03-02 18:07:00,
2013-03-02 13:12:00,57.4,34.3,30.04,West,270,3.6,5.0,42,0.00,,,0.00,JAVA,2013-03-02 18:12:00,
2013-03-02 13:17:00,57.4,34.4,30.03,North,0,3.2,4.7,43,0.00,,,0.00,JAVA,2013-03-02 18:17:00,
2013-03-02 13:22:00,57.3,34.5,30.03,West,270,2.1,3.3,43,0.00,,,0.00,JAVA,2013-03-02 18:22:00,
2013-03-02 13:28:00,57.3,34.6,30.03,SW,225,2.8,4.1,44,0.00,,,0.00,JAVA,2013-03-02 18:28:00,
2013-03-02 13:33:00,57.2,34.8,30.02,SW,225,3.0,4.5,44,0.00,,,0.00,JAVA,2013-03-02 18:33:00,
2013-03-02 13:38:00,57.1,35.1,30.02,SW,225,3.5,6.2,45,0.00,,,0.00,JAVA,2013-03-02 18:38:00,
2013-03-02 13:43:00,57.2,35.3,30.01,WNW,292,3.0,5.9,45,0.00,,,0.00,JAVA,2013-03-02 18:43:00,
2013-03-02 13:48:00,57.3,35.6,30.01,SSE,157,3.4,6.4,46,0.00,,,0.00,JAVA,2013-03-02 18:48:00,
2013-03-02 13:53:00,57.2,35.9,30.01,West,270,3.9,5.3,46,0.00,,,0.00,JAVA,2013-03-02 18:53:00,
2013-03-02 13:59:00,57.4,36.1,30.01,North,0,2.9,5.2,46,0.00,,,0.00,JAVA,2013-03-02 18:59:00,
2013-03-02 14:04:00,58.0,36.4,30.01,North,0,3.8,6.6,46,0.00,,,0.00,JAVA,2013-03-02 19:04:00,
2013-03-02 14:09:00,58.3,36.7,30.00,SW,225,3.8,5.3,47,0.00,,,0.00,JAVA,2013-03-02 19:09:00,
2013-03-02 14:14:00,58.8,37.0,30.01,SW,225,4.0,8.8,46,0.00,,,0.00,JAVA,2013-03-02 19:14:00,
2013-03-02 14:19:00,59.3,37.3,29.99,South,180,3.7,6.2,46,0.00,,,0.00,JAVA,2013-03-02 19:19:00,
2013-03-02 14:24:00,59.6,37.6,30.00,WNW,292,3.0,5.4,46,0.00,,,0.00,JAVA,2013-03-02 19:24:00,
2013-03-02 14:29:00,59.9,37.9,30.00,NNW,337,3.8,5.5,45,0.00,,,0.00,JAVA,2013-03-02 19:29:00,
2013-03-02 14:34:00,59.9,38.2,30.00,North,0,2.7,4.3,45,0.00,,,0.00,JAVA,2013-03-02 19:34:00,
2013-03-02 14:40:00,59.5,38.3,29.99,NW,315,3.9,5.7,44,0.00,,,0.00,JAVA,2013-03-02 19:40:00,
2013-03-02 14:45:00,58.9,38.3,29.99,NW,315,5.2,7.4,43,0.00,,,0.00,JAVA,2013-03-02 19:45:00,
2013-03-02 14:50:00,58.3,38.1,29.99,SW,225,5.7,8.3,42,0.00,,,0.00,JAVA,2013-03-02 19:50:00,
2013-03-02 14:55:00,57.8,37.8,29.99,SW,225,5.1,7.3,41,0.00,,,0.00,JAVA,2013-03-02 19:55:00,
2013-03-02 15:00:00,57.4,37.3,29.99,WNW,292,5.9,9.7,41,0.00,,,0.00,JAVA,2013-03-02 20:00:00,
2013-03-02 15:05:00,57.4,36.7,29.99,WNW,292,4.1,6.6,41,0.00,,,0.00,JAVA,2013-03-02 20:05:00,
2013-03-02 15:10:00,57.3,36.2,29.98,SSW,202,4.0,6.0,41,0.00,,,0.00,JAVA,2013-03-02 20:10:00,
2013-03-02 15:16:00,57.2,35.6,29.99,North,0,4.4,6.8,41,0.00,,,0.00,JAVA,2013-03-02 20:16:00,
2013-03-02 15:21:00,57.3,35.1,29.99,SW,225,3.3,5.8,41,0.00,,,0.00,JAVA,2013-03-02 20:21:00,
2013-03-02 15:26:00,57.4,34.7,29.99,NE,45,3.7,5.4,41,0.00,,,0.00,JAVA,2013-03-02 20:26:00,
2013-03-02 15:31:00,58.0,34.4,29.99,East,90,3.6,5.8,42,0.00,,,0.00,JAVA,2013-03-02 20:31:00,
2013-03-02 15:36:00,58.2,34.4,29.98,SW,225,4.1,6.4,42,0.00,,,0.00,JAVA,2013-03-02 20:36:00,
2013-03-02 15:41:00,58.3,34.4,29.99,NNE,22,4.2,6.0,41,0.00,,,0.00,JAVA,2013-03-02 20:41:00,
2013-03-02 15:46:00,58.2,34.5,29.98,SSW,202,3.3,5.9,40,0.00,,,0.00,JAVA,2013-03-02 20:46:00,
2013-03-02 15:51:00,58.0,34.4,29.99,WNW,292,5.0,6.9,39,0.00,,,0.00,JAVA,2013-03-02 20:51:00,
2013-03-02 15:56:00,58.1,34.4,29.99,SSW,202,3.5,5.0,39,0.00,,,0.00,JAVA,2013-03-02 20:56:00,
2013-03-02 16:02:00,59.0,34.3,29.99,South,180,3.7,5.9,38,0.00,,,0.00,JAVA,2013-03-02 21:02:00,
2013-03-02 16:07:00,58.6,34.2,29.98,WSW,247,4.3,6.8,37,0.00,,,0.00,JAVA,2013-03-02 21:07:00,
2013-03-02 16:12:00,58.3,34.0,29.98,South,180,4.1,6.6,36,0.00,,,0.00,JAVA,2013-03-02 21:12:00,
2013-03-02 16:17:00,58.1,33.5,29.99,SSW,202,3.7,6.0,35,0.00,,,0.00,JAVA,2013-03-02 21:17:00,
2013-03-02 16:22:00,58.1,33.0,29.98,West,270,3.1,5.3,35,0.00,,,0.00,JAVA,2013-03-02 21:22:00,
2013-03-02 16:27:00,58.0,32.6,29.98,SSE,157,2.9,5.0,35,0.00,,,0.00,JAVA,2013-03-02 21:27:00,
2013-03-02 16:32:00,57.8,32.1,29.98,North,0,3.9,5.0,35,0.00,,,0.00,JAVA,2013-03-02 21:32:00,
2013-03-02 16:38:00,57.8,31.7,29.99,South,180,4.2,7.1,35,0.00,,,0.00,JAVA,2013-03-02 21:38:00,
2013-03-02 16:43:00,57.5,31.3,29.99,South,180,5.3,7.3,34,0.00,,,0.00,JAVA,2013-03-02 21:43:00,
2013-03-02 16:48:00,57.7,30.9,29.99,NNW,337,4.7,9.0,34,0.00,,,0.00,JAVA,2013-03-02 21:48:00,
2013-03-02 16:53:00,57.9,30.6,29.99,South,180,3.6,6.0,34,0.00,,,0.00,JAVA,2013-03-02 21:53:00,
2013-03-02 16:59:00,58.1,30.4,29.99,NNW,337,4.7,7.3,34,0.00,,,0.00,JAVA,2013-03-02 21:59:00,
2013-03-02 17:04:00,58.2,30.3,29.99,South,180,4.7,6.9,34,0.00,,,0.00,JAVA,2013-03-02 22:04:00,
2013-03-02 17:09:00,58.1,30.2,29.99,SW,225,4.8,6.3,33,0.00,,,0.00,JAVA,2013-03-02 22:09:00,
2013-03-02 17:14:00,58.0,30.1,29.99,SW,225,4.7,6.1,33,0.00,,,0.00,JAVA,2013-03-02 22:14:00,
2013-03-02 17:19:00,58.0,29.9,29.99,SW,225,3.4,5.3,33,0.00,,,0.00,JAVA,2013-03-02 22:19:00,
2013-03-02 17:24:00,57.9,29.9,30.00,SSW,202,3.9,6.0,33,0.00,,,0.00,JAVA,2013-03-02 22:24:00,
2013-03-02 17:29:00,57.7,29.8,30.00,West,270,3.6,6.5,33,0.00,,,0.00,JAVA,2013-03-02 22:29:00,
2013-03-02 17:35:00,57.3,29.7,30.00,SW,225,4.6,7.1,33,0.00,,,0.00,JAVA,2013-03-02 22:35:00,
2013-03-02 17:40:00,57.0,29.6,30.00,North,0,4.7,8.4,33,0.00,,,0.00,JAVA,2013-03-02 22:40:00,
2013-03-02 17:45:00,56.6,29.4,30.01,NE,45,3.6,5.9,34,0.00,,,0.00,JAVA,2013-03-02 22:45:00,
2013-03-02 17:50:00,56.3,29.2,30.00,SW,225,4.1,6.3,34,0.00,,,0.00,JAVA,2013-03-02 22:50:00,
2013-03-02 17:55:00,55.9,29.1,30.00,SW,225,4.7,6.3,34,0.00,,,0.00,JAVA,2013-03-02 22:55:00,
2013-03-02 18:00:00,55.5,29.0,30.01,South,180,4.7,6.7,35,0.00,,,0.00,JAVA,2013-03-02 23:00:00,
2013-03-02 18:05:00,55.1,28.8,30.00,SW,225,3.2,5.4,35,0.00,,,0.00,JAVA,2013-03-02 23:05:00,
2013-03-02 18:10:00,54.8,28.6,30.01,NNE,22,3.6,5.1,35,0.00,,,0.00,JAVA,2013-03-02 23:10:00,
2013-03-02 18:15:00,54.5,28.4,30.01,SW,225,4.0,5.8,36,0.00,,,0.00,JAVA,2013-03-02 23:15:00,
2013-03-02 18:21:00,54.3,28.3,30.01,WNW,292,3.6,5.6,36,0.00,,,0.00,JAVA,2013-03-02 23:21:00,
2013-03-02 18:26:00,54.1,28.3,30.02,West,270,2.9,4.6,36,0.00,,,0.00,JAVA,2013-03-02 23:26:00,
2013-03-02 18:31:00,53.7,28.2,30.02,SW,225,3.1,4.4,37,0.00,,,0.00,JAVA,2013-03-02 23:31:00,
2013-03-02 18:36:00,53.4,28.2,30.02,SE,135,2.0,4.9,37,0.00,,,0.00,JAVA,2013-03-02 23:36:00,
2013-03-02 18:41:00,52.9,28.1,30.01,North,0,2.0,3.6,38,0.00,,,0.00,JAVA,2013-03-02 23:41:00,
2013-03-02 18:46:00,52.8,28.2,30.02,WNW,292,2.6,4.1,39,0.00,,,0.00,JAVA,2013-03-02 23:46:00,
2013-03-02 18:51:00,52.6,28.2,30.02,SW,225,1.8,3.0,39,0.00,,,0.00,JAVA,2013-03-02 23:51:00,
2013-03-02 18:56:00,52.3,28.3,30.03,NW,315,1.8,3.3,40,0.00,,,0.00,JAVA,2013-03-02 23:56:00,
2013-03-02 19:01:00,52.0,28.4,30.03,West,270,2.9,4.3,40,0.00,,,0.00,JAVA,2013-03-03 00:01:00,
2013-03-02 19:06:00,51.9,28.5,30.03,West,270,1.9,3.7,41,0.00,,,0.00,JAVA,2013-03-03 00:06:00,
2013-03-02 19:11:00,51.7,28.6,30.03,West,270,1.3,2.9,42,0.00,,,0.00,JAVA,2013-03-03 00:11:00,
2013-03-02 19:16:00,51.5,28.8,30.03,SE,135,1.7,2.1,43,0.00,,,0.00,JAVA,2013-03-03 00:16:00,
2013-03-02 19:21:00,51.2,28.9,30.03,SW,225,2.2,3.9,43,0.00,,,0.00,JAVA,2013-03-03 00:21:00,
2013-03-02 19:27:00,50.9,29.1,30.04,SW,225,2.1,3.2,44,0.00,,,0.00,JAVA,2013-03-03 00:27:00,
2013-03-02 19:32:00,50.7,29.3,30.03,SSE,157,2.1,2.9,45,0.00,,,0.00,JAVA,2013-03-03 00:32:00,
2013-03-02 19:37:00,50.6,29.5,30.04,South,180,2.2,3.8,45,0.00,,,0.00,JAVA,2013-03-03 00:37:00,
2013-03-02 19:42:00,50.5,29.7,30.04,SW,225,1.8,2.8,46,0.00,,,0.00,JAVA,2013-03-03 00:42:00,
2013-03-02 19:47:00,50.3,30.0,30.04,SSW,202,1.7,3.2,47,0.00,,,0.00,JAVA,2013-03-03 00:47:00,
2013-03-02 19:52:00,50.2,30.2,30.04,SSW,202,1.5,3.2,47,0.00,,,0.00,JAVA,2013-03-03 00:52:00,
2013-03-02 19:57:00,50.0,30.4,30.04,WNW,292,1.4,2.2,48,0.00,,,0.00,JAVA,2013-03-03 00:57:00,
2013-03-02 20:02:00,49.9,30.6,30.05,SW,225,2.5,4.4,49,0.00,,,0.00,JAVA,2013-03-03 01:02:00,
2013-03-02 20:08:00,49.7,30.8,30.05,WSW,247,1.4,2.5,50,0.00,,,0.00,JAVA,2013-03-03 01:08:00,
2013-03-02 20:13:00,49.6,31.1,30.05,SW,225,1.7,2.9,50,0.00,,,0.00,JAVA,2013-03-03 01:13:00,
2013-03-02 20:18:00,49.4,31.3,30.05,NW,315,1.6,3.3,51,0.00,,,0.00,JAVA,2013-03-03 01:18:00,
2013-03-02 20:23:00,49.2,31.5,30.05,WSW,247,1.6,2.4,52,0.00,,,0.00,JAVA,2013-03-03 01:23:00,
2013-03-02 20:29:00,49.2,31.7,30.04,SW,225,1.5,3.6,52,0.00,,,0.00,JAVA,2013-03-03 01:29:00,
2013-03-02 20:34:00,49.0,31.9,20.08,WNW,292,1.9,3.9,53,0.00,,,0.00,JAVA,2013-03-03 01:34:00,
2013-03-02 20:39:00,48.9,32.1,30.06,West,270,2.1,3.5,53,0.00,,,0.00,JAVA,2013-03-03 01:39:00,
2013-03-02 20:44:00,48.9,32.3,20.09,West,270,1.9,2.8,54,0.00,,,0.00,JAVA,2013-03-03 01:44:00,
2013-03-02 20:50:00,48.8,32.5,30.06,South,180,1.9,3.1,55,0.00,,,0.00,JAVA,2013-03-03 01:50:00,
2013-03-02 20:55:00,48.5,32.7,30.06,NNE,22,1.9,3.0,55,0.00,,,0.00,JAVA,2013-03-03 01:55:00,
2013-03-02 21:00:00,48.5,32.9,30.06,North,0,2.0,3.3,56,0.00,,,0.00,JAVA,2013-03-03 02:00:00,
2013-03-02 21:05:00,48.3,33.0,-17.87,NNE,22,1.3,2.2,56,0.00,,,0.00,JAVA,2013-03-03 02:05:00,
2013-03-02 21:11:00,48.1,33.1,30.07,South,180,1.3,3.1,56,0.00,,,0.00,JAVA,2013-03-03 02:11:00,
2013-03-02 21:16:00,47.8,33.2,20.10,SE,135,1.3,3.5,57,0.00,,,0.00,JAVA,2013-03-03 02:16:00,
2013-03-02 21:21:00,47.6,33.3,20.10,SW,225,1.9,2.6,58,0.00,,,0.00,JAVA,2013-03-03 02:21:00,
2013-03-02 21:27:00,47.6,33.4,20.10,SSW,202,1.8,3.0,58,0.00,,,0.00,JAVA,2013-03-03 02:27:00,
2013-03-02 21:32:00,47.6,33.5,-17.87,West,270,1.8,3.1,58,0.00,,,0.00,JAVA,2013-03-03 02:32:00,
2013-03-02 21:37:00,47.5,33.6,30.07,South,180,2.2,3.6,59,0.00,,,0.00,JAVA,2013-03-03 02:37:00,
2013-03-02 21:42:00,47.4,33.6,30.06,South,180,1.9,3.0,59,0.00,,,0.00,JAVA,2013-03-03 02:42:00,
2013-03-02 21:47:00,47.3,33.7,30.07,NNE,22,2.1,3.4,60,0.00,,,0.00,JAVA,2013-03-03 02:47:00,
2013-03-02 21:53:00,47.3,33.8,20.10,SSW,202,2.0,2.7,61,0.00,,,0.00,JAVA,2013-03-03 02:53:00,
2013-03-02 21:58:00,47.2,33.9,30.07,SW,225,2.0,3.2,61,0.00,,,0.00,JAVA,2013-03-03 02:58:00,
2013-03-02 22:03:00,47.1,34.1,30.07,NW,315,1.7,2.8,62,0.00,,,0.00,JAVA,2013-03-03 03:03:00,
2013-03-02 22:08:00,46.9,34.2,30.07,ENE,67,1.4,2.3,62,0.00,,,0.00,JAVA,2013-03-03 03:08:00,
2013-03-02 22:14:00,46.7,34.3,30.06,South,180,1.6,2.6,63,0.00,,,0.00,JAVA,2013-03-03 03:14:00,
2013-03-02 22:19:00,46.5,34.4,20.10,SW,225,1.2,2.1,63,0.00,,,0.00,JAVA,2013-03-03 03:19:00,
2013-03-02 22:24:00,46.3,34.5,30.06,SW,225,1.5,2.4,64,0.00,,,0.00,JAVA,2013-03-03 03:24:00,
2013-03-02 22:29:00,46.1,34.6,30.06,SW,225,1.2,2.2,65,0.00,,,0.00,JAVA,2013-03-03 03:29:00,
2013-03-02 22:34:00,46.0,34.7,30.06,WSW,247,1.4,2.0,65,0.00,,,0.00,JAVA,2013-03-03 03:34:00,
2013-03-02 22:40:00,45.7,34.8,30.06,SW,225,1.4,2.3,66,0.00,,,0.00,JAVA,2013-03-03 03:40:00,
2013-03-02 22:45:00,45.6,34.9,-17.86,SW,225,1.5,2.8,67,0.00,,,0.00,JAVA,2013-03-03 03:45:00,
2013-03-02 22:50:00,45.5,34.9,30.06,SSW,202,1.2,1.8,68,0.00,,,0.00,JAVA,2013-03-03 03:50:00,
2013-03-02 22:55:00,45.3,35.1,30.05,SSW,202,1.7,2.5,68,0.00,,,0.00,JAVA,2013-03-03 03:55:00,
2013-03-02 23:01:00,45.2,35.2,30.06,SW,225,1.3,2.3,69,0.00,,,0.00,JAVA,2013-03-03 04:01:00,
2013-03-02 23:06:00,45.1,35.3,30.06,SW,225,1.9,2.5,69,0.00,,,0.00,JAVA,2013-03-03 04:06:00,
2013-03-02 23:11:00,45.2,35.4,30.06,SW,225,1.9,2.9,70,0.00,,,0.00,JAVA,2013-03-03 04:11:00,
2013-03-02 23:16:00,45.2,35.5,45.47,SW,225,2.0,2.9,71,0.00,,,0.00,JAVA,2013-03-03 04:16:00,
2013-03-02 23:21:00,45.3,35.7,30.06,South,180,2.3,3.0,71,0.00,,,0.00,JAVA,2013-03-03 04:21:00,
2013-03-02 23:27:00,45.3,35.8,30.06,South,180,2.0,3.3,71,0.00,,,0.00,JAVA,2013-03-03 04:27:00,
2013-03-02 23:32:00,45.3,36.0,30.06,SW,225,2.1,3.1,72,0.00,,,0.00,JAVA,2013-03-03 04:32:00,
2013-03-02 23:37:00,45.3,36.1,30.06,SSW,202,2.3,3.8,72,0.00,,,0.00,JAVA,2013-03-03 04:37:00,
2013-03-02 23:42:00,45.3,36.3,30.05,South,180,1.7,2.7,72,0.00,,,0.00,JAVA,2013-03-03 04:42:00,
2013-03-02 23:47:00,45.3,36.4,30.05,SW,225,2.3,3.7,73,0.00,,,0.00,JAVA,2013-03-03 04:47:00,
2013-03-02 23:52:00,45.3,36.6,30.05,SW,225,1.9,2.9,73,0.00,,,0.00,JAVA,2013-03-03 04:52:00,
2013-03-02 23:57:00,45.2,36.7,30.05,SW,225,1.6,3.2,73,0.00,,,0.00,JAVA,2013-03-03 04:57:00,